createdAt,value
2023-06-10T00:01:21.657Z,5.90
2023-06-10T00:03:49.485Z,4.65
2023-06-10T00:06:17.095Z,4.47
2023-06-10T00:08:44.427Z,4.70
2023-06-10T00:11:11.841Z,4.80
2023-06-10T00:13:39.119Z,5.35
2023-06-10T00:16:06.504Z,4.95
2023-06-10T00:18:33.922Z,4.82
2023-06-10T00:21:05.513Z,4.68
2023-06-10T00:23:38.855Z,4.15
2023-06-10T00:26:06.480Z,4.00
2023-06-10T00:28:33.943Z,4.55
2023-06-10T00:31:02.085Z,4.10
2023-06-10T00:33:29.407Z,4.07
2023-06-10T00:35:56.600Z,5.05
2023-06-10T00:38:24.401Z,4.43
2023-06-10T00:40:51.648Z,4.72
2023-06-10T00:43:18.968Z,4.35
2023-06-10T00:45:46.468Z,4.28
2023-06-10T00:48:14.471Z,4.45
2023-06-10T00:50:41.924Z,4.80
2023-06-10T00:53:09.556Z,4.90
2023-06-10T00:55:37.034Z,4.68
2023-06-10T00:58:05.022Z,4.45
2023-06-10T01:00:32.327Z,4.82
2023-06-10T01:02:59.834Z,4.88
2023-06-10T01:05:27.390Z,5.15
2023-06-10T01:08:03.490Z,5.00
2023-06-10T01:10:32.082Z,4.25
2023-06-10T01:13:09.362Z,4.82
2023-06-10T01:15:36.969Z,5.57
2023-06-10T01:18:16.221Z,4.50
2023-06-10T01:20:45.157Z,4.57
2023-06-10T01:23:12.751Z,4.63
2023-06-10T01:25:45.227Z,5.00
2023-06-10T01:28:28.421Z,4.70
2023-06-10T01:31:18.092Z,5.10
2023-06-10T01:33:48.696Z,4.95
2023-06-10T01:36:17.971Z,5.18
2023-06-10T01:38:47.043Z,4.65
2023-06-10T01:41:15.374Z,4.25
2023-06-10T01:43:44.837Z,4.85
2023-06-10T01:46:12.430Z,5.35
2023-06-10T01:48:40.006Z,4.40
2023-06-10T01:51:07.461Z,5.10
2023-06-10T01:53:34.878Z,5.32
2023-06-10T01:56:03.091Z,5.45
2023-06-10T01:58:30.536Z,5.20
2023-06-10T02:00:58.329Z,5.03
2023-06-10T02:03:25.767Z,4.90
2023-06-10T02:05:53.040Z,5.03
2023-06-10T02:08:20.482Z,4.63
2023-06-10T02:10:48.390Z,4.68
2023-06-10T02:13:15.704Z,5.78
2023-06-10T02:15:43.118Z,5.60
2023-06-10T02:18:12.976Z,6.00
2023-06-10T02:20:40.566Z,5.28
2023-06-10T02:23:07.807Z,5.00
2023-06-10T02:25:35.140Z,5.97
2023-06-10T02:28:04.534Z,5.28
2023-06-10T02:30:32.072Z,5.53
2023-06-10T02:33:00.400Z,5.00
2023-06-10T02:35:28.470Z,5.30
2023-06-10T02:37:55.841Z,5.32
2023-06-10T02:49:12.679Z,5.45
2023-06-10T02:51:40.250Z,5.22
2023-06-10T02:54:07.694Z,4.68
2023-06-10T02:56:35.003Z,5.85
2023-06-10T02:59:02.499Z,5.40
2023-06-10T03:01:33.142Z,5.57
2023-06-10T03:04:00.808Z,6.22
2023-06-10T03:06:28.510Z,5.07
2023-06-10T03:08:55.796Z,5.35
2023-06-10T03:11:24.008Z,5.50
2023-06-10T03:13:51.417Z,5.10
2023-06-10T03:16:19.636Z,4.65
2023-06-10T03:18:47.161Z,5.40
2023-06-10T03:21:14.553Z,5.28
2023-06-10T03:23:41.882Z,4.95
2023-06-10T03:26:11.069Z,6.35
2023-06-10T03:28:38.427Z,5.32
2023-06-10T03:31:05.797Z,5.30
2023-06-10T03:33:33.624Z,5.38
2023-06-10T03:36:00.927Z,6.43
2023-06-10T03:38:28.604Z,6.38
2023-06-10T03:40:55.799Z,5.65
2023-06-10T03:43:23.007Z,4.90
2023-06-10T03:45:50.650Z,4.93
2023-06-10T03:48:18.436Z,5.60
2023-06-10T03:50:45.896Z,6.13
2023-06-10T03:53:13.536Z,6.38
2023-06-10T03:55:42.097Z,5.72
2023-06-10T03:58:09.729Z,5.75
2023-06-10T04:00:42.562Z,5.22
2023-06-10T04:03:10.710Z,6.10
2023-06-10T04:05:38.018Z,5.78
2023-06-10T04:08:06.306Z,6.95
2023-06-10T04:10:33.681Z,5.57
2023-06-10T04:13:01.069Z,5.90
2023-06-10T04:15:28.542Z,5.15
2023-06-10T04:17:56.430Z,5.82
2023-06-10T04:20:23.689Z,6.60
2023-06-10T04:22:51.009Z,6.45
2023-06-10T04:25:18.475Z,5.80
2023-06-10T04:27:45.766Z,5.75
2023-06-10T04:30:14.253Z,5.72
2023-06-10T04:32:41.472Z,5.15
2023-06-10T04:35:09.815Z,5.75
2023-06-10T04:37:37.297Z,5.40
2023-06-10T04:40:05.440Z,4.70
2023-06-10T04:42:33.460Z,5.18
2023-06-10T04:45:00.926Z,7.32
2023-06-10T04:47:28.506Z,6.82
2023-06-10T04:49:55.778Z,5.78
2023-06-10T04:52:23.136Z,5.40
2023-06-10T04:54:50.407Z,5.55
2023-06-10T04:57:18.366Z,5.30
2023-06-10T04:59:45.715Z,4.70
2023-06-10T05:02:13.261Z,6.13
2023-06-10T05:04:40.984Z,5.90
2023-06-10T05:07:08.189Z,6.38
2023-06-10T05:09:35.896Z,5.65
2023-06-10T05:12:03.973Z,6.40
2023-06-10T05:14:31.477Z,6.47
2023-06-10T05:16:58.744Z,5.43
2023-06-10T05:19:26.334Z,5.60
2023-06-10T05:21:53.603Z,6.50
2023-06-10T05:24:20.902Z,5.40
2023-06-10T05:26:49.738Z,5.57
2023-06-10T05:29:17.114Z,5.75
2023-06-10T05:31:44.403Z,6.30
2023-06-10T05:34:11.917Z,5.72
2023-06-10T05:36:39.145Z,6.18
2023-06-10T05:39:06.716Z,6.32
2023-06-10T05:41:34.163Z,5.60
2023-06-10T05:44:02.062Z,5.28
2023-06-10T05:46:29.703Z,5.30
2023-06-10T05:48:57.037Z,6.22
2023-06-10T05:51:24.279Z,6.22
2023-06-10T05:53:51.591Z,5.60
2023-06-10T05:56:18.998Z,6.25
2023-06-10T05:58:46.529Z,5.55
2023-06-10T06:01:13.808Z,5.47
2023-06-10T06:03:41.131Z,5.93
2023-06-10T06:06:08.401Z,5.75
2023-06-10T06:08:36.009Z,5.45
2023-06-10T06:11:03.529Z,5.53
2023-06-10T06:13:30.942Z,6.18
2023-06-10T06:15:58.743Z,5.78
2023-06-10T06:18:26.098Z,5.30
2023-06-10T06:20:53.428Z,5.55
2023-06-10T06:23:20.983Z,6.03
2023-06-10T06:25:48.378Z,5.90
2023-06-10T06:28:15.585Z,5.03
2023-06-10T06:30:43.281Z,5.38
2023-06-10T06:33:10.716Z,6.07
2023-06-10T06:35:39.263Z,5.47
2023-06-10T06:38:06.580Z,5.95
2023-06-10T06:40:33.860Z,6.53
2023-06-10T06:43:01.334Z,5.28
2023-06-10T06:45:28.635Z,6.00
2023-06-10T06:47:57.236Z,5.40
2023-06-10T06:50:24.568Z,5.07
2023-06-10T06:52:51.747Z,4.72
2023-06-10T06:55:19.135Z,5.32
2023-06-10T06:57:46.394Z,5.72
2023-06-10T07:00:13.898Z,4.75
2023-06-10T07:02:41.294Z,5.75
2023-06-10T07:05:09.274Z,5.80
2023-06-10T07:07:36.891Z,5.30
2023-06-10T07:10:04.481Z,5.22
2023-06-10T07:12:32.031Z,4.95
2023-06-10T07:14:59.246Z,5.80
2023-06-10T07:17:27.997Z,5.30
2023-06-10T07:19:58.389Z,5.45
2023-06-10T07:22:25.649Z,5.25
2023-06-10T07:24:53.642Z,5.53
2023-06-10T07:27:20.901Z,5.93
2023-06-10T07:29:48.530Z,6.25
2023-06-10T07:32:17.814Z,5.82
2023-06-10T07:34:47.071Z,5.53
2023-06-10T07:37:14.388Z,5.20
2023-06-10T07:39:41.692Z,5.90
2023-06-10T07:42:09.076Z,5.82
2023-06-10T07:44:36.420Z,5.57
2023-06-10T07:47:03.968Z,5.47
2023-06-10T07:49:31.834Z,5.55
2023-06-10T07:51:59.075Z,5.25
2023-06-10T07:54:28.518Z,5.78
2023-06-10T07:56:57.414Z,6.03
2023-06-10T07:59:26.738Z,5.97
2023-06-10T08:01:54.469Z,6.10
2023-06-10T08:04:21.846Z,5.88
2023-06-10T08:06:49.241Z,5.65
2023-06-10T08:09:16.857Z,6.45
2023-06-10T08:11:44.425Z,5.40
2023-06-10T08:14:11.691Z,5.40
2023-06-10T08:16:38.943Z,5.78
2023-06-10T08:19:06.299Z,5.43
2023-06-10T08:21:34.615Z,5.18
2023-06-10T08:24:02.221Z,5.55
2023-06-10T08:26:29.612Z,5.85
2023-06-10T08:28:56.837Z,6.00
2023-06-10T08:31:24.111Z,6.13
2023-06-10T08:33:51.633Z,5.75
2023-06-10T08:36:18.928Z,4.95
2023-06-10T08:38:46.429Z,5.55
2023-06-10T08:41:15.838Z,6.18
2023-06-10T08:43:45.589Z,5.40
2023-06-10T08:46:15.248Z,6.70
2023-06-10T08:48:45.576Z,5.82
2023-06-10T08:51:15.188Z,5.53
2023-06-10T08:53:51.923Z,6.65
2023-06-10T08:56:19.518Z,6.28
2023-06-10T08:58:47.768Z,5.75
2023-06-10T09:01:15.172Z,5.60
2023-06-10T09:03:42.741Z,5.55
2023-06-10T09:06:10.306Z,5.20
2023-06-10T09:08:37.758Z,5.30
2023-06-10T09:11:05.031Z,5.88
2023-06-10T09:13:33.281Z,5.43
2023-06-10T09:16:03.041Z,5.63
2023-06-10T09:18:31.247Z,5.45
2023-06-10T09:20:58.814Z,5.15
2023-06-10T09:23:26.686Z,5.05
2023-06-10T09:25:58.083Z,6.40
2023-06-10T09:28:25.778Z,5.35
2023-06-10T09:31:06.625Z,5.47
2023-06-10T09:33:34.440Z,5.22
2023-06-10T09:36:03.510Z,5.03
2023-06-10T09:38:33.181Z,4.88
2023-06-10T09:41:02.496Z,6.03
2023-06-10T09:43:42.763Z,5.60
2023-06-10T09:46:20.157Z,5.43
2023-06-10T09:48:49.132Z,4.93
2023-06-10T09:51:18.312Z,5.40
2023-06-10T09:53:51.204Z,5.32
2023-06-10T09:56:18.973Z,6.32
2023-06-10T09:58:48.088Z,6.82
2023-06-10T10:01:16.825Z,5.60
2023-06-10T10:03:49.010Z,6.22
2023-06-10T10:06:18.280Z,5.68
2023-06-10T10:08:50.889Z,6.07
2023-06-10T10:11:19.591Z,6.85
2023-06-10T10:13:48.968Z,5.63
2023-06-10T10:16:18.419Z,6.00
2023-06-10T10:19:09.201Z,5.53
2023-06-10T10:21:41.132Z,5.00
2023-06-10T10:24:11.133Z,5.60
2023-06-10T10:26:39.572Z,5.15
2023-06-10T10:29:23.797Z,3.95
2023-06-10T10:31:56.459Z,4.35
2023-06-10T10:34:32.745Z,4.80
2023-06-10T10:37:00.181Z,3.95
2023-06-10T10:39:29.346Z,3.45
2023-06-10T10:41:57.054Z,3.95
2023-06-10T10:44:24.799Z,3.95
2023-06-10T10:46:52.248Z,3.25
2023-06-10T10:49:19.654Z,3.58
2023-06-10T10:52:00.023Z,3.85
2023-06-10T10:54:33.128Z,4.00
2023-06-10T10:57:13.985Z,3.67
2023-06-10T10:59:48.226Z,3.80
2023-06-10T11:02:41.587Z,3.40
2023-06-10T11:05:10.071Z,3.28
2023-06-10T11:07:37.827Z,3.20
2023-06-10T11:10:07.935Z,3.25
2023-06-10T11:12:55.398Z,3.22
2023-06-10T11:15:27.875Z,3.53
2023-06-10T11:18:14.741Z,3.17
2023-06-10T11:20:50.766Z,3.22
2023-06-10T11:23:29.983Z,3.13
2023-06-10T11:26:18.501Z,3.28
2023-06-10T11:28:48.621Z,3.03
2023-06-10T11:31:23.440Z,3.75
2023-06-10T11:36:20.970Z,3.65
2023-06-10T11:38:49.510Z,3.33
2023-06-10T11:41:18.817Z,3.80
2023-06-10T11:43:49.093Z,3.08
2023-06-10T11:46:16.627Z,3.72
2023-06-10T11:48:51.880Z,3.35
2023-06-10T11:51:19.478Z,4.13
2023-06-10T11:53:48.226Z,3.47
2023-06-10T11:56:21.360Z,3.58
2023-06-10T11:59:06.782Z,4.32
2023-06-10T12:01:36.185Z,4.65
2023-06-10T12:04:11.020Z,4.22
2023-06-10T12:06:49.750Z,4.40
2023-06-10T12:09:54.594Z,3.95
2023-06-10T12:12:21.970Z,3.90
2023-06-10T12:14:56.658Z,3.65
2023-06-10T12:17:25.238Z,3.83
2023-06-10T12:19:52.916Z,3.90
2023-06-10T12:22:20.967Z,3.80
2023-06-10T12:25:03.105Z,3.85
2023-06-10T12:27:31.812Z,4.18
2023-06-10T12:30:05.287Z,4.68
2023-06-10T12:32:47.127Z,4.00
2023-06-10T12:35:19.111Z,4.50
2023-06-10T12:38:08.039Z,4.70
2023-06-10T12:40:39.008Z,4.60
2023-06-10T12:43:06.470Z,4.85
2023-06-10T12:45:35.688Z,4.57
2023-06-10T12:48:12.879Z,4.85
2023-06-10T12:50:41.355Z,4.70
2023-06-10T12:53:09.237Z,5.10
2023-06-10T12:55:36.612Z,5.05
2023-06-10T12:58:04.559Z,4.90
2023-06-10T13:00:32.076Z,5.70
2023-06-10T13:03:02.285Z,5.20
2023-06-10T13:05:30.724Z,5.55
2023-06-10T13:07:59.074Z,5.72
2023-06-10T13:10:26.936Z,5.70
2023-06-10T13:12:55.916Z,6.82
2023-06-10T13:15:23.575Z,5.53
2023-06-10T13:17:52.319Z,4.90
2023-06-10T13:20:20.453Z,5.78
2023-06-10T13:22:48.960Z,6.00
2023-06-10T13:25:17.238Z,5.15
2023-06-10T13:27:45.071Z,5.20
2023-06-10T13:30:12.800Z,5.40
2023-06-10T13:32:40.350Z,6.32
2023-06-10T13:35:09.168Z,5.22
2023-06-10T13:37:37.439Z,6.00
2023-06-10T13:40:05.840Z,5.53
2023-06-10T13:42:33.402Z,5.60
2023-06-10T13:45:00.719Z,6.28
2023-06-10T13:47:28.014Z,5.97
2023-06-10T13:49:55.361Z,5.32
2023-06-10T13:52:22.640Z,5.10
2023-06-10T13:54:49.889Z,5.30
2023-06-10T13:57:17.268Z,5.65
2023-06-10T13:59:44.914Z,5.68
2023-06-10T14:02:12.286Z,5.55
2023-06-10T14:04:39.679Z,5.40
2023-06-10T14:07:06.945Z,5.45
2023-06-10T14:09:34.467Z,4.95
2023-06-10T14:12:01.844Z,5.57
2023-06-10T14:14:29.170Z,5.03
2023-06-10T14:16:57.093Z,4.63
2023-06-10T14:19:24.530Z,4.88
2023-06-10T14:21:51.789Z,4.88
2023-06-10T14:24:19.443Z,4.68
2023-06-10T14:26:46.888Z,4.90
2023-06-10T14:29:15.446Z,4.60
2023-06-10T14:31:42.962Z,5.28
2023-06-10T14:34:10.452Z,4.90
2023-06-10T14:36:38.327Z,5.20
2023-06-10T14:39:05.836Z,4.43
2023-06-10T14:41:33.233Z,4.72
2023-06-10T14:44:00.405Z,4.97
2023-06-10T14:46:27.709Z,5.00
2023-06-10T14:48:55.013Z,5.82
2023-06-10T14:51:22.395Z,5.50
2023-06-10T14:53:49.950Z,5.78
2023-06-10T14:56:17.345Z,6.43
2023-06-10T14:58:44.822Z,7.63
2023-06-10T15:01:12.048Z,9.00
2023-06-10T15:03:39.328Z,9.60
2023-06-10T15:06:06.572Z,11.70
2023-06-10T15:08:34.342Z,14.00
2023-06-10T15:11:04.154Z,15.93
2023-06-10T15:13:31.568Z,18.52
2023-06-10T15:16:01.032Z,22.85
2023-06-10T15:18:30.744Z,26.25
2023-06-10T15:20:58.026Z,30.52
2023-06-10T15:23:25.745Z,33.83
2023-06-10T15:25:53.000Z,36.50
2023-06-10T15:28:20.328Z,42.08
2023-06-10T15:30:49.747Z,51.72
2023-06-10T15:33:17.029Z,53.90
2023-06-10T15:35:44.623Z,50.95
2023-06-10T15:38:12.051Z,47.50
2023-06-10T15:40:41.995Z,36.60
2023-06-10T15:43:09.210Z,27.58
2023-06-10T15:45:36.502Z,17.70
2023-06-10T15:48:04.358Z,15.18
2023-06-10T15:50:31.959Z,11.48
2023-06-10T15:52:59.487Z,11.40
2023-06-10T15:55:27.589Z,11.27
2023-06-10T15:57:55.350Z,10.80
2023-06-10T16:00:22.685Z,8.63
2023-06-10T16:02:50.001Z,8.57
2023-06-10T16:05:17.520Z,7.65
2023-06-10T16:07:44.976Z,8.30
2023-06-10T16:10:12.218Z,9.35
2023-06-10T16:12:39.477Z,9.82
2023-06-10T16:15:07.802Z,8.82
2023-06-10T16:17:35.404Z,9.70
2023-06-10T16:20:02.878Z,8.77
2023-06-10T16:22:30.198Z,8.70
2023-06-10T16:24:57.454Z,7.15
2023-06-10T16:27:26.463Z,5.88
2023-06-10T16:29:54.267Z,5.65
2023-06-10T16:32:21.584Z,5.63
2023-06-10T16:34:49.460Z,5.43
2023-06-10T16:37:17.164Z,5.45
2023-06-10T16:39:44.483Z,5.05
2023-06-10T16:42:11.691Z,4.93
2023-06-10T16:44:38.934Z,4.78
2023-06-10T16:47:06.478Z,4.50
2023-06-10T16:49:35.437Z,4.20
2023-06-10T16:52:03.282Z,5.07
2023-06-10T16:54:30.604Z,4.82
2023-06-10T16:56:58.009Z,5.45
2023-06-10T16:59:25.275Z,5.97
2023-06-10T17:01:52.593Z,5.70
2023-06-10T17:04:19.902Z,5.90
2023-06-10T17:06:47.298Z,4.80
2023-06-10T17:09:14.559Z,4.70
2023-06-10T17:11:41.826Z,4.47
2023-06-10T17:14:09.100Z,4.38
2023-06-10T17:16:36.670Z,4.60
2023-06-10T17:19:04.117Z,4.90
2023-06-10T17:21:31.730Z,4.25
2023-06-10T17:23:59.196Z,4.38
2023-06-10T17:26:27.962Z,4.75
2023-06-10T17:28:55.524Z,5.00
2023-06-10T17:31:22.793Z,4.35
2023-06-10T17:33:50.175Z,5.93
2023-06-10T17:36:19.140Z,4.80
2023-06-10T17:38:46.525Z,4.28
2023-06-10T17:41:13.946Z,3.72
2023-06-10T17:43:43.069Z,4.20
2023-06-10T17:46:12.606Z,4.70
2023-06-10T17:48:39.881Z,3.95
2023-06-10T17:51:07.034Z,4.55
2023-06-10T17:53:35.097Z,4.57
2023-06-10T17:56:02.829Z,4.40
2023-06-10T17:58:30.043Z,3.75
2023-06-10T18:01:01.669Z,3.65
2023-06-10T18:03:30.054Z,4.32
2023-06-10T18:06:07.038Z,4.13
2023-06-10T18:08:39.200Z,4.10
2023-06-10T18:11:06.537Z,4.15
2023-06-10T18:13:34.413Z,4.05
2023-06-10T18:16:01.689Z,4.10
2023-06-10T18:18:29.703Z,4.32
2023-06-10T18:20:57.575Z,4.70
2023-06-10T18:23:25.885Z,4.70
2023-06-10T18:25:53.120Z,3.78
2023-06-10T18:28:20.402Z,4.50
2023-06-10T18:30:47.909Z,4.47
2023-06-10T18:33:15.378Z,4.15
2023-06-10T18:35:42.661Z,4.35
2023-06-10T18:38:10.286Z,4.63
2023-06-10T18:40:37.493Z,4.85
2023-06-10T18:43:05.229Z,4.20
2023-06-10T18:45:32.593Z,4.93
2023-06-10T18:48:00.217Z,4.93
2023-06-10T18:50:27.821Z,4.22
2023-06-10T18:52:55.017Z,4.60
2023-06-10T18:55:22.291Z,4.35
2023-06-10T18:57:50.182Z,4.30
2023-06-10T19:00:17.856Z,5.00
2023-06-10T19:02:45.384Z,4.15
2023-06-10T19:05:14.335Z,4.03
2023-06-10T19:07:41.591Z,4.07
2023-06-10T19:10:09.180Z,4.68
2023-06-10T19:12:36.433Z,4.45
2023-06-10T19:15:04.545Z,4.35
2023-06-10T19:17:32.234Z,4.30
2023-06-10T19:19:59.597Z,4.43
2023-06-10T19:22:26.881Z,4.80
2023-06-10T19:25:04.454Z,4.28
2023-06-10T19:27:31.920Z,4.35
2023-06-10T19:29:59.427Z,4.80
2023-06-10T19:32:27.699Z,4.45
2023-06-10T19:34:55.027Z,4.35
2023-06-10T19:37:22.297Z,4.72
2023-06-10T19:39:49.894Z,4.28
2023-06-10T19:42:17.188Z,3.60
2023-06-10T19:44:45.410Z,4.15
2023-06-10T19:47:12.754Z,4.00
2023-06-10T19:49:40.010Z,4.30
2023-06-10T19:52:08.038Z,4.03
2023-06-10T19:54:36.673Z,4.20
2023-06-10T19:57:04.627Z,4.28
2023-06-10T19:59:33.920Z,4.07
2023-06-10T20:02:04.200Z,4.68
2023-06-10T20:04:46.774Z,4.20
2023-06-10T20:07:20.265Z,4.20
2023-06-10T20:09:48.093Z,4.68
2023-06-10T20:12:15.374Z,4.47
2023-06-10T20:14:42.589Z,4.70
2023-06-10T20:17:09.845Z,3.88
2023-06-10T20:19:37.004Z,4.25
2023-06-10T20:22:05.167Z,4.63
2023-06-10T20:24:32.823Z,4.22
2023-06-10T20:27:00.516Z,4.82
2023-06-10T20:29:27.838Z,4.43
2023-06-10T20:31:55.132Z,3.92
2023-06-10T20:34:23.029Z,4.40
2023-06-10T20:36:50.365Z,3.92
2023-06-10T20:39:19.143Z,3.88
2023-06-10T20:41:46.637Z,3.83
2023-06-10T20:44:14.882Z,5.03
2023-06-10T20:46:42.223Z,4.00
2023-06-10T20:49:09.994Z,4.43
2023-06-10T20:51:38.786Z,4.47
2023-06-10T20:54:06.150Z,4.10
2023-06-10T20:56:33.533Z,4.05
2023-06-10T20:59:01.091Z,3.72
2023-06-10T21:01:28.677Z,3.80
2023-06-10T21:03:56.161Z,4.10
2023-06-10T21:06:23.940Z,3.95
2023-06-10T21:08:52.376Z,3.80
2023-06-10T21:11:20.012Z,4.60
2023-06-10T21:13:47.372Z,4.60
2023-06-10T21:16:14.795Z,3.80
2023-06-10T21:18:42.342Z,3.80
2023-06-10T21:21:09.768Z,4.97
2023-06-10T21:23:37.055Z,4.30
2023-06-10T21:26:06.513Z,3.75
2023-06-10T21:28:34.578Z,3.88
2023-06-10T21:31:03.632Z,4.38
2023-06-10T21:33:31.136Z,4.35
2023-06-10T21:35:58.668Z,4.28
2023-06-10T21:38:26.437Z,4.22
2023-06-10T21:40:55.412Z,3.90
2023-06-10T21:43:22.640Z,4.22
2023-06-10T21:49:30.972Z,4.40
2023-06-10T21:51:58.381Z,4.10
2023-06-10T21:54:25.691Z,4.18
2023-06-10T21:56:52.949Z,4.47
2023-06-10T21:59:23.552Z,3.92
2023-06-10T22:01:50.845Z,4.57
2023-06-10T22:04:18.548Z,3.90
2023-06-10T22:06:47.055Z,4.43
2023-06-10T22:09:14.317Z,4.05
2023-06-10T22:11:41.658Z,3.55
2023-06-10T22:14:08.903Z,3.33
2023-06-10T22:16:36.159Z,3.47
2023-06-10T22:19:03.735Z,4.00
2023-06-10T22:21:31.440Z,3.40
2023-06-10T22:23:58.825Z,3.72
2023-06-10T22:26:36.865Z,3.83
2023-06-10T22:29:11.120Z,3.00
2023-06-10T22:31:38.413Z,3.95
2023-06-10T22:34:05.646Z,3.47
2023-06-10T22:36:32.997Z,3.20
2023-06-10T22:39:00.394Z,3.20
2023-06-10T22:41:27.926Z,3.70
2023-06-10T22:43:55.266Z,3.22
2023-06-10T22:46:22.508Z,3.25
2023-06-10T22:48:50.299Z,3.70
2023-06-10T22:51:17.873Z,3.58
2023-06-10T22:53:45.122Z,3.13
2023-06-10T22:56:12.416Z,3.90
2023-06-10T22:58:39.606Z,3.53
2023-06-10T23:01:06.855Z,3.28
2023-06-10T23:03:34.519Z,3.40
2023-06-10T23:06:02.148Z,3.17
2023-06-10T23:08:29.442Z,3.10
2023-06-10T23:10:56.778Z,3.35
2023-06-10T23:13:24.031Z,3.10
2023-06-10T23:15:51.225Z,3.38
2023-06-10T23:18:18.509Z,3.15
2023-06-10T23:20:47.655Z,3.15
2023-06-10T23:23:16.119Z,3.75
2023-06-10T23:25:45.750Z,2.80
2023-06-10T23:28:13.189Z,2.95
2023-06-10T23:30:40.694Z,3.13
2023-06-10T23:33:08.391Z,3.30
2023-06-10T23:35:35.775Z,2.97
2023-06-10T23:38:03.121Z,3.00
2023-06-10T23:40:30.722Z,2.47
2023-06-10T23:42:58.028Z,3.72
2023-06-10T23:45:25.313Z,2.95
2023-06-10T23:47:53.665Z,3.20
2023-06-10T23:50:20.909Z,3.30
2023-06-10T23:52:49.750Z,2.40
2023-06-10T23:55:17.225Z,2.88
2023-06-10T23:57:44.736Z,2.63
